Terminal Aerodrome Forecast
Issued by NWS

Home | Current Version | Previous Version | Text Only | Print | Product List | Glossary Off
Versions: 1 2 3 4 5 6 7 8 9 10 11 12 13 14 15 16 17 18

718
FTUS43 KMPX 211720
TAFRWF
TAF
KRWF 211720Z 2118/2218 16008KT P6SM FEW080
     FM221400 17014G22KT P6SM FEW050=

USA.gov is the U.S. government's official web portal to all federal, state and local government web resources and services.